sensor_id;sensor_type;location;lat;lon;timestamp;P1;durP1;ratioP1;P2;durP2;ratioP2
1701;SDS011;848;48.354;10.064;2023-08-17T00:01:33;8.15;;;7.28;;
1701;SDS011;848;48.354;10.064;2023-08-17T00:04:01;9.60;;;7.45;;
1701;SDS011;848;48.354;10.064;2023-08-17T00:06:28;8.38;;;7.50;;
1701;SDS011;848;48.354;10.064;2023-08-17T00:08:55;8.02;;;7.32;;
1701;SDS011;848;48.354;10.064;2023-08-17T00:11:22;7.43;;;6.70;;
1701;SDS011;848;48.354;10.064;2023-08-17T00:13:49;8.35;;;7.65;;
1701;SDS011;848;48.354;10.064;2023-08-17T00:16:17;8.27;;;7.45;;
1701;SDS011;848;48.354;10.064;2023-08-17T00:18:43;6.82;;;6.22;;
1701;SDS011;848;48.354;10.064;2023-08-17T00:21:12;9.65;;;7.88;;
1701;SDS011;848;48.354;10.064;2023-08-17T00:23:39;8.25;;;7.47;;
1701;SDS011;848;48.354;10.064;2023-08-17T00:26:05;8.90;;;8.00;;
1701;SDS011;848;48.354;10.064;2023-08-17T00:28:32;8.93;;;8.13;;
1701;SDS011;848;48.354;10.064;2023-08-17T00:31:00;8.65;;;6.78;;
1701;SDS011;848;48.354;10.064;2023-08-17T00:33:27;6.80;;;6.20;;
1701;SDS011;848;48.354;10.064;2023-08-17T00:35:54;7.43;;;6.82;;
1701;SDS011;848;48.354;10.064;2023-08-17T00:38:22;8.05;;;7.00;;
1701;SDS011;848;48.354;10.064;2023-08-17T00:40:49;6.50;;;5.90;;
1701;SDS011;848;48.354;10.064;2023-08-17T00:43:16;7.80;;;6.95;;
1701;SDS011;848;48.354;10.064;2023-08-17T00:45:43;7.60;;;6.88;;
1701;SDS011;848;48.354;10.064;2023-08-17T00:48:12;7.15;;;6.55;;
1701;SDS011;848;48.354;10.064;2023-08-17T00:50:40;7.03;;;6.40;;
1701;SDS011;848;48.354;10.064;2023-08-17T00:53:07;7.20;;;6.60;;
1701;SDS011;848;48.354;10.064;2023-08-17T00:55:39;7.93;;;6.72;;
1701;SDS011;848;48.354;10.064;2023-08-17T00:58:06;6.53;;;5.93;;
1701;SDS011;848;48.354;10.064;2023-08-17T01:00:33;7.30;;;6.70;;
1701;SDS011;848;48.354;10.064;2023-08-17T01:03:00;8.43;;;6.25;;
1701;SDS011;848;48.354;10.064;2023-08-17T01:05:28;6.90;;;6.30;;
1701;SDS011;848;48.354;10.064;2023-08-17T01:07:56;7.40;;;6.70;;
1701;SDS011;848;48.354;10.064;2023-08-17T01:10:23;7.93;;;6.78;;
1701;SDS011;848;48.354;10.064;2023-08-17T01:12:58;9.43;;;7.05;;
1701;SDS011;848;48.354;10.064;2023-08-17T01:15:32;7.18;;;6.57;;
1701;SDS011;848;48.354;10.064;2023-08-17T01:18:04;7.57;;;6.43;;
1701;SDS011;848;48.354;10.064;2023-08-17T01:20:39;7.90;;;7.05;;
1701;SDS011;848;48.354;10.064;2023-08-17T01:23:08;7.20;;;6.50;;
1701;SDS011;848;48.354;10.064;2023-08-17T01:25:35;8.60;;;7.80;;
1701;SDS011;848;48.354;10.064;2023-08-17T01:28:03;6.85;;;6.25;;
1701;SDS011;848;48.354;10.064;2023-08-17T01:30:32;8.38;;;7.47;;
1701;SDS011;848;48.354;10.064;2023-08-17T01:33:05;8.00;;;7.07;;
1701;SDS011;848;48.354;10.064;2023-08-17T01:35:37;7.70;;;7.00;;
1701;SDS011;848;48.354;10.064;2023-08-17T01:38:10;7.55;;;6.78;;
1701;SDS011;848;48.354;10.064;2023-08-17T01:40:40;11.85;;;6.38;;
1701;SDS011;848;48.354;10.064;2023-08-17T01:43:08;8.75;;;6.95;;
1701;SDS011;848;48.354;10.064;2023-08-17T01:45:37;7.97;;;7.18;;
1701;SDS011;848;48.354;10.064;2023-08-17T01:48:04;7.38;;;6.70;;
1701;SDS011;848;48.354;10.064;2023-08-17T01:50:31;6.85;;;6.25;;
1701;SDS011;848;48.354;10.064;2023-08-17T01:52:58;11.10;;;8.57;;
1701;SDS011;848;48.354;10.064;2023-08-17T01:55:27;11.07;;;7.65;;
1701;SDS011;848;48.354;10.064;2023-08-17T01:57:53;8.18;;;7.30;;
1701;SDS011;848;48.354;10.064;2023-08-17T02:00:20;7.45;;;6.70;;
1701;SDS011;848;48.354;10.064;2023-08-17T02:02:47;9.00;;;7.03;;
1701;SDS011;848;48.354;10.064;2023-08-17T02:05:14;7.90;;;7.15;;
1701;SDS011;848;48.354;10.064;2023-08-17T02:07:41;8.40;;;7.60;;
1701;SDS011;848;48.354;10.064;2023-08-17T02:10:08;8.23;;;7.45;;
1701;SDS011;848;48.354;10.064;2023-08-17T02:12:37;7.68;;;6.95;;
1701;SDS011;848;48.354;10.064;2023-08-17T02:15:04;8.93;;;8.07;;
1701;SDS011;848;48.354;10.064;2023-08-17T02:17:31;8.68;;;7.88;;
1701;SDS011;848;48.354;10.064;2023-08-17T02:19:58;9.02;;;8.13;;
1701;SDS011;848;48.354;10.064;2023-08-17T02:22:25;9.73;;;8.00;;
1701;SDS011;848;48.354;10.064;2023-08-17T02:24:52;8.52;;;7.72;;
1701;SDS011;848;48.354;10.064;2023-08-17T02:27:19;8.95;;;7.32;;
1701;SDS011;848;48.354;10.064;2023-08-17T02:29:47;7.40;;;6.70;;
1701;SDS011;848;48.354;10.064;2023-08-17T02:32:14;8.55;;;7.65;;
1701;SDS011;848;48.354;10.064;2023-08-17T02:34:41;8.60;;;7.80;;
1701;SDS011;848;48.354;10.064;2023-08-17T02:37:08;9.27;;;8.38;;
1701;SDS011;848;48.354;10.064;2023-08-17T02:39:35;9.00;;;7.22;;
1701;SDS011;848;48.354;10.064;2023-08-17T02:42:01;10.13;;;8.30;;
1701;SDS011;848;48.354;10.064;2023-08-17T02:44:28;8.20;;;7.40;;
1701;SDS011;848;48.354;10.064;2023-08-17T02:46:57;7.95;;;7.18;;
1701;SDS011;848;48.354;10.064;2023-08-17T02:49:24;11.57;;;7.25;;
1701;SDS011;848;48.354;10.064;2023-08-17T02:51:52;9.05;;;8.15;;
1701;SDS011;848;48.354;10.064;2023-08-17T02:54:19;9.43;;;8.60;;
1701;SDS011;848;48.354;10.064;2023-08-17T02:56:46;8.60;;;7.72;;
1701;SDS011;848;48.354;10.064;2023-08-17T02:59:13;9.13;;;7.20;;
1701;SDS011;848;48.354;10.064;2023-08-17T03:01:39;8.63;;;7.72;;
1701;SDS011;848;48.354;10.064;2023-08-17T03:04:08;9.23;;;8.43;;
1701;SDS011;848;48.354;10.064;2023-08-17T03:06:34;8.60;;;7.80;;
1701;SDS011;848;48.354;10.064;2023-08-17T03:09:01;9.68;;;8.13;;
1701;SDS011;848;48.354;10.064;2023-08-17T03:11:29;9.10;;;8.10;;
1701;SDS011;848;48.354;10.064;2023-08-17T03:13:56;8.80;;;8.00;;
1701;SDS011;848;48.354;10.064;2023-08-17T03:16:25;8.82;;;7.93;;
1701;SDS011;848;48.354;10.064;2023-08-17T03:18:52;10.32;;;8.02;;
1701;SDS011;848;48.354;10.064;2023-08-17T03:21:20;12.10;;;8.43;;
1701;SDS011;848;48.354;10.064;2023-08-17T03:23:47;11.43;;;8.75;;
1701;SDS011;848;48.354;10.064;2023-08-17T03:26:14;9.40;;;8.50;;
1701;SDS011;848;48.354;10.064;2023-08-17T03:28:41;12.38;;;8.80;;
1701;SDS011;848;48.354;10.064;2023-08-17T03:31:08;13.07;;;9.30;;
1701;SDS011;848;48.354;10.064;2023-08-17T03:33:35;9.30;;;8.40;;
1701;SDS011;848;48.354;10.064;2023-08-17T03:36:02;8.93;;;8.02;;
1701;SDS011;848;48.354;10.064;2023-08-17T03:38:31;11.30;;;8.57;;
1701;SDS011;848;48.354;10.064;2023-08-17T03:40:58;10.27;;;8.50;;
1701;SDS011;848;48.354;10.064;2023-08-17T03:43:26;10.13;;;9.13;;
1701;SDS011;848;48.354;10.064;2023-08-17T03:45:53;11.43;;;8.98;;
1701;SDS011;848;48.354;10.064;2023-08-17T03:48:20;9.85;;;8.32;;
1701;SDS011;848;48.354;10.064;2023-08-17T03:50:50;9.88;;;8.23;;
1701;SDS011;848;48.354;10.064;2023-08-17T03:53:17;11.13;;;9.73;;
1701;SDS011;848;48.354;10.064;2023-08-17T03:55:46;9.40;;;8.50;;
1701;SDS011;848;48.354;10.064;2023-08-17T03:58:13;10.57;;;9.32;;
1701;SDS011;848;48.354;10.064;2023-08-17T04:00:40;10.25;;;9.15;;
1701;SDS011;848;48.354;10.064;2023-08-17T04:03:08;15.43;;;9.90;;
1701;SDS011;848;48.354;10.064;2023-08-17T04:05:35;10.95;;;9.85;;
1701;SDS011;848;48.354;10.064;2023-08-17T04:08:02;16.15;;;10.55;;
1701;SDS011;848;48.354;10.064;2023-08-17T04:10:29;10.32;;;9.32;;
1701;SDS011;848;48.354;10.064;2023-08-17T04:12:57;9.45;;;8.48;;
1701;SDS011;848;48.354;10.064;2023-08-17T04:15:24;11.73;;;10.63;;
1701;SDS011;848;48.354;10.064;2023-08-17T04:17:51;11.00;;;8.85;;
1701;SDS011;848;48.354;10.064;2023-08-17T04:20:18;9.45;;;8.50;;
1701;SDS011;848;48.354;10.064;2023-08-17T04:22:45;10.30;;;9.23;;
1701;SDS011;848;48.354;10.064;2023-08-17T04:25:12;10.57;;;7.47;;
1701;SDS011;848;48.354;10.064;2023-08-17T04:27:39;11.35;;;9.32;;
1701;SDS011;848;48.354;10.064;2023-08-17T04:30:08;9.20;;;8.32;;
1701;SDS011;848;48.354;10.064;2023-08-17T04:32:36;9.50;;;8.60;;
1701;SDS011;848;48.354;10.064;2023-08-17T04:35:03;8.90;;;7.93;;
1701;SDS011;848;48.354;10.064;2023-08-17T04:37:30;12.52;;;8.48;;
1701;SDS011;848;48.354;10.064;2023-08-17T04:39:57;10.48;;;9.50;;
1701;SDS011;848;48.354;10.064;2023-08-17T04:42:24;9.77;;;8.77;;
1701;SDS011;848;48.354;10.064;2023-08-17T04:44:52;12.00;;;8.02;;
1701;SDS011;848;48.354;10.064;2023-08-17T04:47:20;9.98;;;8.70;;
1701;SDS011;848;48.354;10.064;2023-08-17T04:49:47;9.15;;;8.30;;
1701;SDS011;848;48.354;10.064;2023-08-17T04:52:14;8.68;;;7.80;;
1701;SDS011;848;48.354;10.064;2023-08-17T04:54:41;16.92;;;8.32;;
1701;SDS011;848;48.354;10.064;2023-08-17T04:57:08;9.27;;;8.32;;
1701;SDS011;848;48.354;10.064;2023-08-17T04:59:35;7.85;;;7.05;;
1701;SDS011;848;48.354;10.064;2023-08-17T05:02:02;12.05;;;8.20;;
1701;SDS011;848;48.354;10.064;2023-08-17T05:04:30;8.05;;;7.25;;
1701;SDS011;848;48.354;10.064;2023-08-17T05:06:57;8.38;;;7.60;;
1701;SDS011;848;48.354;10.064;2023-08-17T05:09:24;9.70;;;8.80;;
1701;SDS011;848;48.354;10.064;2023-08-17T05:11:52;10.18;;;9.18;;
1701;SDS011;848;48.354;10.064;2023-08-17T05:14:19;10.27;;;9.18;;
1701;SDS011;848;48.354;10.064;2023-08-17T05:16:46;14.32;;;9.40;;
1701;SDS011;848;48.354;10.064;2023-08-17T05:19:13;10.73;;;9.60;;
1701;SDS011;848;48.354;10.064;2023-08-17T05:21:41;9.73;;;8.73;;
1701;SDS011;848;48.354;10.064;2023-08-17T05:24:08;10.02;;;8.98;;
1701;SDS011;848;48.354;10.064;2023-08-17T05:26:36;9.70;;;8.88;;
1701;SDS011;848;48.354;10.064;2023-08-17T05:29:03;9.35;;;8.45;;
1701;SDS011;848;48.354;10.064;2023-08-17T05:31:30;10.88;;;9.77;;
1701;SDS011;848;48.354;10.064;2023-08-17T05:33:57;10.95;;;9.95;;
1701;SDS011;848;48.354;10.064;2023-08-17T05:36:24;11.63;;;10.43;;
1701;SDS011;848;48.354;10.064;2023-08-17T05:38:52;11.32;;;10.18;;
1701;SDS011;848;48.354;10.064;2023-08-17T05:41:19;11.77;;;10.60;;
1701;SDS011;848;48.354;10.064;2023-08-17T05:43:47;26.48;;;19.58;;
1701;SDS011;848;48.354;10.064;2023-08-17T05:46:14;25.83;;;18.05;;
1701;SDS011;848;48.354;10.064;2023-08-17T05:48:41;19.63;;;14.45;;
1701;SDS011;848;48.354;10.064;2023-08-17T05:51:08;20.55;;;15.07;;
1701;SDS011;848;48.354;10.064;2023-08-17T05:53:35;16.55;;;14.45;;
1701;SDS011;848;48.354;10.064;2023-08-17T05:56:03;14.38;;;11.93;;
1701;SDS011;848;48.354;10.064;2023-08-17T05:58:30;12.52;;;10.80;;
1701;SDS011;848;48.354;10.064;2023-08-17T06:01:03;11.27;;;10.18;;
1701;SDS011;848;48.354;10.064;2023-08-17T06:03:31;11.35;;;10.25;;
1701;SDS011;848;48.354;10.064;2023-08-17T06:05:58;12.18;;;11.07;;
1701;SDS011;848;48.354;10.064;2023-08-17T06:08:25;12.10;;;10.90;;
1701;SDS011;848;48.354;10.064;2023-08-17T06:10:52;12.45;;;11.15;;
1701;SDS011;848;48.354;10.064;2023-08-17T06:13:20;11.05;;;10.05;;
1701;SDS011;848;48.354;10.064;2023-08-17T06:15:47;12.05;;;10.95;;
1701;SDS011;848;48.354;10.064;2023-08-17T06:18:14;11.63;;;10.55;;
1701;SDS011;848;48.354;10.064;2023-08-17T06:20:41;11.00;;;9.82;;
1701;SDS011;848;48.354;10.064;2023-08-17T06:23:08;11.75;;;10.18;;
1701;SDS011;848;48.354;10.064;2023-08-17T06:25:34;12.00;;;10.68;;
1701;SDS011;848;48.354;10.064;2023-08-17T06:28:01;12.43;;;9.90;;
1701;SDS011;848;48.354;10.064;2023-08-17T06:30:30;11.40;;;9.37;;
1701;SDS011;848;48.354;10.064;2023-08-17T06:32:57;11.00;;;10.00;;
1701;SDS011;848;48.354;10.064;2023-08-17T06:35:24;11.30;;;10.20;;
1701;SDS011;848;48.354;10.064;2023-08-17T06:37:51;12.03;;;10.83;;
1701;SDS011;848;48.354;10.064;2023-08-17T06:40:21;10.50;;;9.50;;
1701;SDS011;848;48.354;10.064;2023-08-17T06:42:48;13.47;;;10.00;;
1701;SDS011;848;48.354;10.064;2023-08-17T06:45:15;12.00;;;10.83;;
1701;SDS011;848;48.354;10.064;2023-08-17T06:47:44;11.33;;;10.33;;
1701;SDS011;848;48.354;10.064;2023-08-17T06:50:13;10.97;;;10.07;;
1701;SDS011;848;48.354;10.064;2023-08-17T06:52:40;12.13;;;10.50;;
1701;SDS011;848;48.354;10.064;2023-08-17T06:55:07;10.40;;;9.37;;
1701;SDS011;848;48.354;10.064;2023-08-17T06:57:35;10.73;;;9.60;;
1701;SDS011;848;48.354;10.064;2023-08-17T07:00:02;11.30;;;10.07;;
1701;SDS011;848;48.354;10.064;2023-08-17T07:02:31;11.33;;;10.13;;
1701;SDS011;848;48.354;10.064;2023-08-17T07:04:59;11.47;;;10.30;;
1701;SDS011;848;48.354;10.064;2023-08-17T07:07:26;9.60;;;8.67;;
1701;SDS011;848;48.354;10.064;2023-08-17T07:09:53;10.60;;;9.60;;
1701;SDS011;848;48.354;10.064;2023-08-17T07:12:20;9.97;;;8.87;;
1701;SDS011;848;48.354;10.064;2023-08-17T07:14:48;10.37;;;9.40;;
1701;SDS011;848;48.354;10.064;2023-08-17T07:17:15;10.50;;;9.60;;
1701;SDS011;848;48.354;10.064;2023-08-17T07:19:42;8.50;;;7.80;;
1701;SDS011;848;48.354;10.064;2023-08-17T07:22:11;7.50;;;6.80;;
1701;SDS011;848;48.354;10.064;2023-08-17T07:24:37;7.50;;;6.80;;
1701;SDS011;848;48.354;10.064;2023-08-17T07:27:04;8.17;;;7.37;;
1701;SDS011;848;48.354;10.064;2023-08-17T07:29:32;8.60;;;7.90;;
1701;SDS011;848;48.354;10.064;2023-08-17T07:31:59;8.60;;;7.90;;
1701;SDS011;848;48.354;10.064;2023-08-17T07:34:27;10.40;;;9.40;;
1701;SDS011;848;48.354;10.064;2023-08-17T07:36:55;13.50;;;10.47;;
1701;SDS011;848;48.354;10.064;2023-08-17T07:39:23;10.77;;;9.77;;
1701;SDS011;848;48.354;10.064;2023-08-17T07:41:50;9.73;;;8.53;;
1701;SDS011;848;48.354;10.064;2023-08-17T07:44:17;10.03;;;9.10;;
1701;SDS011;848;48.354;10.064;2023-08-17T07:46:44;10.57;;;9.60;;
1701;SDS011;848;48.354;10.064;2023-08-17T07:49:11;10.30;;;9.40;;
1701;SDS011;848;48.354;10.064;2023-08-17T07:51:37;13.03;;;9.77;;
1701;SDS011;848;48.354;10.064;2023-08-17T07:54:04;10.77;;;9.40;;
1701;SDS011;848;48.354;10.064;2023-08-17T07:56:33;10.20;;;9.30;;
1701;SDS011;848;48.354;10.064;2023-08-17T07:58:59;9.30;;;8.50;;
1701;SDS011;848;48.354;10.064;2023-08-17T08:01:26;8.80;;;8.00;;
1701;SDS011;848;48.354;10.064;2023-08-17T08:03:53;9.13;;;8.23;;
1701;SDS011;848;48.354;10.064;2023-08-17T08:06:20;11.47;;;9.80;;
1701;SDS011;848;48.354;10.064;2023-08-17T08:08:48;9.80;;;8.80;;
1701;SDS011;848;48.354;10.064;2023-08-17T08:11:14;9.83;;;8.93;;
1701;SDS011;848;48.354;10.064;2023-08-17T08:13:43;11.90;;;9.03;;
1701;SDS011;848;48.354;10.064;2023-08-17T08:16:10;10.63;;;9.53;;
1701;SDS011;848;48.354;10.064;2023-08-17T08:18:37;9.23;;;8.43;;
1701;SDS011;848;48.354;10.064;2023-08-17T08:21:03;9.57;;;8.77;;
1701;SDS011;848;48.354;10.064;2023-08-17T08:23:30;13.10;;;9.70;;
1701;SDS011;848;48.354;10.064;2023-08-17T08:25:57;9.67;;;8.40;;
1701;SDS011;848;48.354;10.064;2023-08-17T08:28:24;8.90;;;8.20;;
1701;SDS011;848;48.354;10.064;2023-08-17T08:30:52;8.20;;;7.43;;
1701;SDS011;848;48.354;10.064;2023-08-17T08:33:19;8.83;;;8.07;;
1701;SDS011;848;48.354;10.064;2023-08-17T08:35:46;10.93;;;7.43;;
1701;SDS011;848;48.354;10.064;2023-08-17T08:38:13;10.87;;;6.97;;
1701;SDS011;848;48.354;10.064;2023-08-17T08:40:41;7.07;;;6.30;;
1701;SDS011;848;48.354;10.064;2023-08-17T08:43:10;6.93;;;6.33;;
1701;SDS011;848;48.354;10.064;2023-08-17T08:45:37;8.17;;;6.60;;
1701;SDS011;848;48.354;10.064;2023-08-17T08:48:10;6.80;;;6.23;;
1701;SDS011;848;48.354;10.064;2023-08-17T08:50:39;5.93;;;5.20;;
1701;SDS011;848;48.354;10.064;2023-08-17T08:53:07;7.37;;;6.70;;
1701;SDS011;848;48.354;10.064;2023-08-17T08:55:41;6.60;;;6.00;;
1701;SDS011;848;48.354;10.064;2023-08-17T08:58:13;6.67;;;6.17;;
1701;SDS011;848;48.354;10.064;2023-08-17T09:00:45;6.50;;;5.90;;
1701;SDS011;848;48.354;10.064;2023-08-17T09:03:14;6.87;;;6.27;;
1701;SDS011;848;48.354;10.064;2023-08-17T09:05:44;7.73;;;6.27;;
1701;SDS011;848;48.354;10.064;2023-08-17T09:08:13;6.00;;;5.40;;
1701;SDS011;848;48.354;10.064;2023-08-17T09:10:41;6.90;;;6.30;;
1701;SDS011;848;48.354;10.064;2023-08-17T09:13:09;5.90;;;5.40;;
1701;SDS011;848;48.354;10.064;2023-08-17T09:15:36;5.60;;;5.10;;
1701;SDS011;848;48.354;10.064;2023-08-17T09:18:05;19.60;;;5.50;;
1701;SDS011;848;48.354;10.064;2023-08-17T09:20:37;5.93;;;5.33;;
1701;SDS011;848;48.354;10.064;2023-08-17T09:23:09;6.90;;;5.87;;
1701;SDS011;848;48.354;10.064;2023-08-17T09:25:39;5.30;;;4.70;;
1701;SDS011;848;48.354;10.064;2023-08-17T09:28:07;7.50;;;5.50;;
1701;SDS011;848;48.354;10.064;2023-08-17T09:30:48;5.23;;;4.73;;
1701;SDS011;848;48.354;10.064;2023-08-17T09:33:17;12.57;;;4.73;;
1701;SDS011;848;48.354;10.064;2023-08-17T09:35:46;5.30;;;4.50;;
1701;SDS011;848;48.354;10.064;2023-08-17T09:38:13;5.00;;;4.50;;
1701;SDS011;848;48.354;10.064;2023-08-17T09:40:40;5.00;;;4.60;;
1701;SDS011;848;48.354;10.064;2023-08-17T09:43:08;5.40;;;4.90;;
1701;SDS011;848;48.354;10.064;2023-08-17T09:45:35;6.57;;;4.93;;
1701;SDS011;848;48.354;10.064;2023-08-17T09:48:03;4.90;;;4.50;;
1701;SDS011;848;48.354;10.064;2023-08-17T09:50:30;5.90;;;5.30;;
1701;SDS011;848;48.354;10.064;2023-08-17T09:52:59;6.70;;;4.27;;
1701;SDS011;848;48.354;10.064;2023-08-17T09:55:26;5.10;;;4.57;;
1701;SDS011;848;48.354;10.064;2023-08-17T09:57:53;5.37;;;4.73;;
1701;SDS011;848;48.354;10.064;2023-08-17T10:00:21;4.70;;;4.30;;
1701;SDS011;848;48.354;10.064;2023-08-17T10:02:49;9.17;;;4.70;;
1701;SDS011;848;48.354;10.064;2023-08-17T10:05:17;4.90;;;4.50;;
1701;SDS011;848;48.354;10.064;2023-08-17T10:07:47;4.90;;;4.30;;
1701;SDS011;848;48.354;10.064;2023-08-17T10:10:21;7.50;;;5.13;;
1701;SDS011;848;48.354;10.064;2023-08-17T10:12:53;5.83;;;5.23;;
1701;SDS011;848;48.354;10.064;2023-08-17T10:15:25;6.13;;;5.00;;
1701;SDS011;848;48.354;10.064;2023-08-17T10:17:58;5.00;;;4.13;;
1701;SDS011;848;48.354;10.064;2023-08-17T10:20:29;5.90;;;5.30;;
1701;SDS011;848;48.354;10.064;2023-08-17T10:23:01;4.90;;;4.50;;
1701;SDS011;848;48.354;10.064;2023-08-17T10:25:38;5.97;;;5.40;;
1701;SDS011;848;48.354;10.064;2023-08-17T10:28:06;4.90;;;4.50;;
1701;SDS011;848;48.354;10.064;2023-08-17T10:30:35;6.07;;;5.57;;
1701;SDS011;848;48.354;10.064;2023-08-17T10:33:02;5.40;;;4.90;;
1701;SDS011;848;48.354;10.064;2023-08-17T10:35:31;8.23;;;7.43;;
1701;SDS011;848;48.354;10.064;2023-08-17T10:37:59;5.80;;;5.30;;
1701;SDS011;848;48.354;10.064;2023-08-17T10:40:26;6.60;;;5.13;;
1701;SDS011;848;48.354;10.064;2023-08-17T10:42:55;5.30;;;4.80;;
1701;SDS011;848;48.354;10.064;2023-08-17T10:45:26;5.57;;;5.17;;
1701;SDS011;848;48.354;10.064;2023-08-17T10:50:59;7.80;;;4.60;;
1701;SDS011;848;48.354;10.064;2023-08-17T10:53:27;6.33;;;4.50;;
1701;SDS011;848;48.354;10.064;2023-08-17T10:56:01;5.30;;;4.70;;
1701;SDS011;848;48.354;10.064;2023-08-17T10:58:33;6.20;;;4.80;;
1701;SDS011;848;48.354;10.064;2023-08-17T11:01:01;8.00;;;4.47;;
1701;SDS011;848;48.354;10.064;2023-08-17T11:03:28;5.90;;;4.20;;
1701;SDS011;848;48.354;10.064;2023-08-17T11:05:55;8.73;;;5.00;;
1701;SDS011;848;48.354;10.064;2023-08-17T11:08:23;5.20;;;4.80;;
1701;SDS011;848;48.354;10.064;2023-08-17T11:10:58;6.53;;;5.40;;
1701;SDS011;848;48.354;10.064;2023-08-17T11:13:28;5.00;;;4.60;;
1701;SDS011;848;48.354;10.064;2023-08-17T11:15:57;5.40;;;5.00;;
1701;SDS011;848;48.354;10.064;2023-08-17T11:18:25;5.50;;;5.00;;
1701;SDS011;848;48.354;10.064;2023-08-17T11:20:52;6.20;;;5.33;;
1701;SDS011;848;48.354;10.064;2023-08-17T11:23:20;5.53;;;5.13;;
1701;SDS011;848;48.354;10.064;2023-08-17T11:25:48;5.70;;;5.20;;
1701;SDS011;848;48.354;10.064;2023-08-17T11:28:17;5.67;;;5.10;;
1701;SDS011;848;48.354;10.064;2023-08-17T11:30:44;6.17;;;5.57;;
1701;SDS011;848;48.354;10.064;2023-08-17T11:33:12;6.27;;;5.27;;
1701;SDS011;848;48.354;10.064;2023-08-17T11:35:39;7.00;;;6.30;;
1701;SDS011;848;48.354;10.064;2023-08-17T11:38:06;8.47;;;5.70;;
1701;SDS011;848;48.354;10.064;2023-08-17T11:40:33;5.90;;;5.37;;
1701;SDS011;848;48.354;10.064;2023-08-17T11:43:01;8.60;;;5.50;;
1701;SDS011;848;48.354;10.064;2023-08-17T11:45:27;6.23;;;5.73;;
1701;SDS011;848;48.354;10.064;2023-08-17T11:47:55;6.53;;;5.37;;
1701;SDS011;848;48.354;10.064;2023-08-17T11:50:24;6.10;;;5.40;;
1701;SDS011;848;48.354;10.064;2023-08-17T11:52:51;6.10;;;5.57;;
1701;SDS011;848;48.354;10.064;2023-08-17T11:55:18;7.10;;;5.30;;
1701;SDS011;848;48.354;10.064;2023-08-17T11:57:45;7.30;;;5.70;;
1701;SDS011;848;48.354;10.064;2023-08-17T12:00:17;5.77;;;5.37;;
1701;SDS011;848;48.354;10.064;2023-08-17T12:02:48;6.90;;;5.80;;
1701;SDS011;848;48.354;10.064;2023-08-17T12:05:21;5.70;;;5.20;;
1701;SDS011;848;48.354;10.064;2023-08-17T12:07:52;5.40;;;4.90;;
1701;SDS011;848;48.354;10.064;2023-08-17T12:10:19;6.60;;;5.43;;
1701;SDS011;848;48.354;10.064;2023-08-17T12:12:47;6.23;;;5.73;;
1701;SDS011;848;48.354;10.064;2023-08-17T12:15:15;6.50;;;5.90;;
1701;SDS011;848;48.354;10.064;2023-08-17T12:17:44;5.93;;;5.40;;
1701;SDS011;848;48.354;10.064;2023-08-17T12:20:15;6.70;;;5.87;;
1701;SDS011;848;48.354;10.064;2023-08-17T12:22:44;6.10;;;5.60;;
1701;SDS011;848;48.354;10.064;2023-08-17T12:25:11;7.37;;;5.77;;
1701;SDS011;848;48.354;10.064;2023-08-17T12:27:38;5.93;;;5.33;;
1701;SDS011;848;48.354;10.064;2023-08-17T12:30:11;6.63;;;5.93;;
1701;SDS011;848;48.354;10.064;2023-08-17T12:32:49;8.80;;;6.30;;
1701;SDS011;848;48.354;10.064;2023-08-17T12:35:16;6.67;;;6.00;;
1701;SDS011;848;48.354;10.064;2023-08-17T12:37:47;5.73;;;5.23;;
1701;SDS011;848;48.354;10.064;2023-08-17T12:40:14;6.03;;;5.13;;
1701;SDS011;848;48.354;10.064;2023-08-17T12:42:41;6.90;;;5.90;;
1701;SDS011;848;48.354;10.064;2023-08-17T12:45:08;7.83;;;5.20;;
1701;SDS011;848;48.354;10.064;2023-08-17T12:47:36;6.10;;;5.60;;
1701;SDS011;848;48.354;10.064;2023-08-17T12:50:03;5.90;;;5.30;;
1701;SDS011;848;48.354;10.064;2023-08-17T12:52:30;7.00;;;6.37;;
1701;SDS011;848;48.354;10.064;2023-08-17T12:54:58;7.07;;;6.37;;
1701;SDS011;848;48.354;10.064;2023-08-17T12:57:25;6.37;;;5.60;;
1701;SDS011;848;48.354;10.064;2023-08-17T12:59:52;6.30;;;5.70;;
1701;SDS011;848;48.354;10.064;2023-08-17T13:02:19;6.40;;;5.90;;
1701;SDS011;848;48.354;10.064;2023-08-17T13:04:46;6.53;;;5.93;;
1701;SDS011;848;48.354;10.064;2023-08-17T13:07:13;6.77;;;6.13;;
1701;SDS011;848;48.354;10.064;2023-08-17T13:09:40;7.57;;;6.07;;
1701;SDS011;848;48.354;10.064;2023-08-17T13:12:11;8.07;;;6.97;;
1701;SDS011;848;48.354;10.064;2023-08-17T13:14:38;9.90;;;6.53;;
1701;SDS011;848;48.354;10.064;2023-08-17T13:17:05;8.13;;;6.30;;
1701;SDS011;848;48.354;10.064;2023-08-17T13:19:32;7.50;;;6.80;;
1701;SDS011;848;48.354;10.064;2023-08-17T13:21:59;8.20;;;6.70;;
1701;SDS011;848;48.354;10.064;2023-08-17T13:24:27;6.57;;;6.00;;
1701;SDS011;848;48.354;10.064;2023-08-17T13:26:54;10.60;;;6.47;;
1701;SDS011;848;48.354;10.064;2023-08-17T13:29:23;7.50;;;6.70;;
1701;SDS011;848;48.354;10.064;2023-08-17T13:31:50;7.23;;;6.63;;
1701;SDS011;848;48.354;10.064;2023-08-17T13:34:17;7.13;;;6.53;;
1701;SDS011;848;48.354;10.064;2023-08-17T13:36:44;8.83;;;4.23;;
1701;SDS011;848;48.354;10.064;2023-08-17T13:39:11;9.27;;;3.30;;
1701;SDS011;848;48.354;10.064;2023-08-17T13:41:38;6.57;;;3.97;;
1701;SDS011;848;48.354;10.064;2023-08-17T13:44:05;4.20;;;3.70;;
1701;SDS011;848;48.354;10.064;2023-08-17T13:46:33;9.13;;;4.33;;
1701;SDS011;848;48.354;10.064;2023-08-17T13:49:00;3.50;;;2.97;;
1701;SDS011;848;48.354;10.064;2023-08-17T13:51:27;4.00;;;3.03;;
1701;SDS011;848;48.354;10.064;2023-08-17T13:53:54;6.00;;;3.80;;
1701;SDS011;848;48.354;10.064;2023-08-17T13:56:21;5.00;;;2.73;;
1701;SDS011;848;48.354;10.064;2023-08-17T13:58:48;4.73;;;3.00;;
1701;SDS011;848;48.354;10.064;2023-08-17T14:01:15;4.17;;;3.33;;
1701;SDS011;848;48.354;10.064;2023-08-17T14:03:43;10.53;;;4.10;;
1701;SDS011;848;48.354;10.064;2023-08-17T14:06:10;16.93;;;4.87;;
1701;SDS011;848;48.354;10.064;2023-08-17T14:08:37;5.23;;;3.27;;
1701;SDS011;848;48.354;10.064;2023-08-17T14:11:04;5.33;;;4.10;;
1701;SDS011;848;48.354;10.064;2023-08-17T14:13:31;5.53;;;4.10;;
1701;SDS011;848;48.354;10.064;2023-08-17T14:15:59;6.60;;;4.87;;
1701;SDS011;848;48.354;10.064;2023-08-17T14:18:26;9.03;;;5.13;;
1701;SDS011;848;48.354;10.064;2023-08-17T14:20:54;6.87;;;4.60;;
1701;SDS011;848;48.354;10.064;2023-08-17T14:23:21;8.00;;;4.83;;
1701;SDS011;848;48.354;10.064;2023-08-17T14:25:48;9.57;;;5.17;;
1701;SDS011;848;48.354;10.064;2023-08-17T14:28:17;9.60;;;3.97;;
1701;SDS011;848;48.354;10.064;2023-08-17T14:30:43;10.10;;;4.60;;
1701;SDS011;848;48.354;10.064;2023-08-17T14:33:10;10.07;;;4.23;;
1701;SDS011;848;48.354;10.064;2023-08-17T14:35:37;5.43;;;4.90;;
1701;SDS011;848;48.354;10.064;2023-08-17T14:38:06;8.50;;;4.90;;
1701;SDS011;848;48.354;10.064;2023-08-17T14:40:34;6.30;;;4.20;;
1701;SDS011;848;48.354;10.064;2023-08-17T14:43:01;8.27;;;4.43;;
1701;SDS011;848;48.354;10.064;2023-08-17T14:45:28;7.40;;;4.70;;
1701;SDS011;848;48.354;10.064;2023-08-17T14:47:56;9.40;;;4.67;;
1701;SDS011;848;48.354;10.064;2023-08-17T14:50:24;6.57;;;4.90;;
1701;SDS011;848;48.354;10.064;2023-08-17T14:52:51;9.20;;;4.57;;
1701;SDS011;848;48.354;10.064;2023-08-17T14:55:19;5.87;;;4.37;;
1701;SDS011;848;48.354;10.064;2023-08-17T14:57:46;5.30;;;4.70;;
1701;SDS011;848;48.354;10.064;2023-08-17T15:00:14;9.90;;;4.20;;
1701;SDS011;848;48.354;10.064;2023-08-17T15:02:41;11.17;;;5.87;;
1701;SDS011;848;48.354;10.064;2023-08-17T15:05:09;5.57;;;4.90;;
1701;SDS011;848;48.354;10.064;2023-08-17T15:07:37;11.80;;;5.70;;
1701;SDS011;848;48.354;10.064;2023-08-17T15:10:04;11.13;;;5.23;;
1701;SDS011;848;48.354;10.064;2023-08-17T15:12:33;12.82;;;5.90;;
1701;SDS011;848;48.354;10.064;2023-08-17T15:15:00;6.73;;;4.93;;
1701;SDS011;848;48.354;10.064;2023-08-17T15:17:29;11.23;;;5.67;;